Westbrook, Texas
Current Conditions -  °F | °C
As of 12:35 AM on Thursday 27 Nov 2014 (Local Time) from KSNK Reporting Station
Clear Clear  
Wind Chill: 38°   Ceiling: Unl
Heat Index: 41°   Visibility: 10mi
Dew Point: 33°   Wind: 5mph
Humidity: 73%   Direction: 30°NNE
Pressure: 30.42"   Gusts: NA
Location:  32.36°N, 101.01°W
Report Text: KSNK 270635Z AUTO 03004KT 10SM CLR 05/00 A3042 RMK AO2 T00490004
Loading
Personal Weather Stations






























Interactive Weather Map New forecast layout! Learn more

10-Day Weather Forecast

Advertisements
Track Severe Weather on mobile